• Join FlightAware (Why Join?)
  • Login
  • US Flag 
07:44AM EDT


 

Airport Tracker/Info


-or-


 

Live Flight TrackerFlight Track Log ✈ EJA898 ✈ 25-Apr-2013 ✈ KBED - KTEB

Flight Track Log - Related Links

Times and Time Zones

All times are in EDT time to prevent confusion due to time zone crossing. See the EJA898 flight status page for this flight to view local times or setup timezone preferences in your user account.

Time Position Orientation Groundspeed Altitude Reporting Facility
EDT Latitude Longitude Course Direction KTS MPH feet Rate Location/Type
09:06AM 42.4667 -71.3167 270° West 188 216 1,600  Level KA90
09:07AM 42.4667 -71.3500 270° West 188 216 1,900 2,220 Climbing KA90
09:09AM 42.3733 -71.4678 223° Southwest 231 266 7,500 3,180 Climbing Boston Center
09:10AM 42.3617 -71.5692 261° West 242 278 12,100 3,660 Climbing Boston Center
09:11AM 42.3497 -71.6564 260° West 264 304 14,900 1,920 Climbing Boston Center
09:12AM 42.3317 -71.7606 257° West 279 321 16,000 540 Climbing Boston Center
09:13AM 42.3094 -71.8814 256° West 307 353 16,000  Level Boston Center
09:14AM 42.2892 -72.0022 257° West 330 380 16,100  Climbing Boston Center
09:15AM 42.2625 -72.1511 256° West 330 380 16,100 -60 Level Boston Center
09:16AM 42.2419 -72.2692 257° West 324 373 16,000 -60 Descending Boston Center
09:17AM 42.2253 -72.3617 256° West 324 373 16,000  Level Boston Center
09:18AM 42.2003 -72.5044 257° West 329 379 16,000  Level Boston Center
09:19AM 42.1794 -72.6222 257° West 329 379 16,000  Level Boston Center
09:20AM 42.1603 -72.7397 258° West 329 379 16,000 -540 Level Boston Center
09:21AM 42.1517 -72.8603 265° West 334 384 15,000 -1,020 Descending Boston Center
09:22AM 42.1450 -72.9722 265° West 334 384 14,000 -480 Descending Boston Center
09:23AM 42.1336 -73.1317 265° West 328 377 14,000  Level Boston Center
09:24AM 42.1267 -73.2350 265° West 328 377 14,000  Level Boston Center
09:25AM 42.1153 -73.3719 264° West 328 377 14,000  Level Boston Center
09:26AM 42.1078 -73.5175 266° West 328 377 14,000  Level Boston Center
09:27AM 42.0981 -73.6406 264° West 328 377 14,000  Level Boston Center
09:29AM 42.0908 -73.7439 265° West 328 377 14,000  Level Boston Center
09:30AM 42.0783 -73.9003 264° West 328 377 14,000  Level Boston Center
09:31AM 42.0683 -74.0203 264° West 334 384 14,000 -240 Level Boston Center
09:32AM 42.0603 -74.1431 265° West 334 384 13,600 -600 Descending Boston Center
09:33AM 42.0419 -74.2656 259° West 329 379 12,800 -900 Descending Boston Center
09:34AM 41.9719 -74.3306 215° Southwest 327 376 11,800 -1,380 Descending Boston Center
09:35AM 41.8792 -74.3892 205° Southwest 333 383 10,100 -1,200 Descending Boston Center
09:36AM 41.8097 -74.4344 206° Southwest 324 373 9,500 -1,140 Descending Boston Center
09:37AM 41.7358 -74.4822 206° Southwest 279 321 7,900 -1,260 Descending Boston Center
09:38AM 41.6769 -74.5192 205° Southwest 268 308 7,000 -660 Descending Boston Center
09:39AM 41.6011 -74.5556 200° South 268 308 6,600 -540 Descending Boston Center
09:40AM 41.5319 -74.5700 189° South 268 308 6,000 -180 Descending Boston Center
09:42AM 41.3333 -74.6167 190° South 269 310 6,000 -240 Level New York TRACON
09:43AM 41.2667 -74.6333 191° South 278 320 5,200 -660 Descending New York TRACON
09:44AM 41.1833 -74.6167 171° South 279 321 4,700 -660 Descending New York TRACON
09:45AM 41.1167 -74.5833 159° South 279 321 4,000 -420 Descending New York TRACON
09:46AM 41.0500 -74.5500 159° South 270 311 4,000 -300 Level New York TRACON
09:47AM 40.9667 -74.5167 163° South 279 321 3,500 -540 Descending New York TRACON
09:48AM 40.9000 -74.4833 159° South 261 300 3,000 -300 Descending New York TRACON
09:49AM 40.8333 -74.4500 159° South 268 308 3,000  Level New York TRACON
09:50AM 40.7833 -74.4000 143° Southeast 265 305 3,000 -420 Level New York TRACON
09:51AM 40.7167 -74.3333 143° Southeast 235 270 2,200 -540 Descending New York TRACON
09:52AM 40.7167 -74.2833 90° East 207 238 2,000 -360 Descending New York TRACON
09:53AM 40.7500 -74.2167 57° Northeast 175 201 1,600 -300 Descending New York TRACON
09:54AM 40.7833 -74.1667 49° Northeast 178 205 1,400 -180 Descending New York TRACON
09:55AM 40.8000 -74.1333 57° Northeast 142 163 1,300 -420 Descending New York TRACON
09:56AM 40.8167 -74.0833 66° East 149 171 700 -600 Descending New York TRACON
09:58AM 40.8500 -74.0500 53° Northeast  Level FlightAware Approximate